createdAt,value
2022-11-03T00:01:40.888Z,7.09
2022-11-03T00:04:10.760Z,7.04
2022-11-03T00:06:41.111Z,7.07
2022-11-03T00:09:11.348Z,6.61
2022-11-03T00:11:40.905Z,6.44
2022-11-03T00:14:10.507Z,6.92
2022-11-03T00:16:39.657Z,7.11
2022-11-03T00:19:08.582Z,6.87
2022-11-03T00:21:37.114Z,7.16
2022-11-03T00:24:07.311Z,6.43
2022-11-03T00:26:37.042Z,6.63
2022-11-03T00:29:09.309Z,6.87
2022-11-03T00:31:38.919Z,6.49
2022-11-03T00:34:08.360Z,6.47
2022-11-03T00:36:38.699Z,6.82
2022-11-03T00:39:08.689Z,6.35
2022-11-03T00:41:37.581Z,6.29
2022-11-03T00:44:05.948Z,6.30
2022-11-03T00:46:35.864Z,6.07
2022-11-03T00:49:04.894Z,5.43
2022-11-03T00:51:34.634Z,6.15
2022-11-03T00:54:04.582Z,6.14
2022-11-03T00:56:35.892Z,5.84
2022-11-03T00:59:04.999Z,5.55
2022-11-03T01:01:40.577Z,6.08
2022-11-03T01:04:30.341Z,5.89
2022-11-03T01:07:00.417Z,6.11
2022-11-03T01:09:30.399Z,5.86
2022-11-03T01:12:02.640Z,5.58
2022-11-03T01:14:34.466Z,5.85
2022-11-03T01:17:02.834Z,5.26
2022-11-03T01:19:30.976Z,5.75
2022-11-03T01:21:59.097Z,5.23
2022-11-03T01:24:27.169Z,5.75
2022-11-03T01:26:55.276Z,5.21
2022-11-03T01:29:24.783Z,5.10
2022-11-03T01:31:52.965Z,5.62
2022-11-03T01:34:22.907Z,5.61
2022-11-03T01:36:51.026Z,5.74
2022-11-03T01:39:20.409Z,5.70
2022-11-03T01:41:50.468Z,5.67
2022-11-03T01:44:32.569Z,5.11
2022-11-03T01:47:07.570Z,5.04
2022-11-03T01:49:42.526Z,5.00
2022-11-03T01:52:17.014Z,5.11
2022-11-03T01:54:47.636Z,5.07
2022-11-03T01:57:21.512Z,5.12
2022-11-03T01:59:50.944Z,5.49
2022-11-03T02:02:19.502Z,4.90
2022-11-03T02:04:47.798Z,5.18
2022-11-03T02:07:23.010Z,5.39
2022-11-03T02:09:51.140Z,5.65
2022-11-03T02:12:21.246Z,5.37
2022-11-03T02:14:55.854Z,5.37
2022-11-03T02:17:25.457Z,5.19
2022-11-03T02:19:58.003Z,5.09
2022-11-03T02:22:44.287Z,5.25
2022-11-03T02:25:19.016Z,5.19
2022-11-03T02:27:48.649Z,4.83
2022-11-03T02:30:16.843Z,4.83
2022-11-03T02:32:58.847Z,5.32
2022-11-03T02:35:35.722Z,4.69
2022-11-03T02:38:07.221Z,4.95
2022-11-03T02:40:38.758Z,5.23
2022-11-03T02:43:11.034Z,4.91
2022-11-03T02:45:41.139Z,4.61
2022-11-03T02:48:10.125Z,4.53
2022-11-03T02:50:38.213Z,4.86
2022-11-03T02:53:06.502Z,4.66
2022-11-03T02:55:39.383Z,4.33
2022-11-03T02:58:16.378Z,4.69
2022-11-03T03:00:49.360Z,4.57
2022-11-03T03:03:23.638Z,4.59
2022-11-03T03:05:55.318Z,5.12
2022-11-03T03:08:26.552Z,4.56
2022-11-03T03:10:56.173Z,4.48
2022-11-03T03:13:26.552Z,4.24
2022-11-03T03:16:06.821Z,4.55
2022-11-03T03:18:49.144Z,4.71
2022-11-03T03:21:22.467Z,4.42
2022-11-03T03:23:58.743Z,4.11
2022-11-03T03:26:29.892Z,4.33
2022-11-03T03:29:04.868Z,4.25
2022-11-03T03:31:37.692Z,4.79
2022-11-03T03:34:23.903Z,4.77
2022-11-03T03:36:57.934Z,4.74
2022-11-03T03:39:30.230Z,4.33
2022-11-03T03:42:01.177Z,4.68
2022-11-03T03:44:32.661Z,4.23
2022-11-03T03:47:04.463Z,4.65
2022-11-03T03:49:32.615Z,4.67
2022-11-03T03:52:00.984Z,4.78
2022-11-03T03:54:29.148Z,4.52
2022-11-03T03:57:02.690Z,4.56
2022-11-03T03:59:32.290Z,4.86
2022-11-03T04:02:00.656Z,4.94
2022-11-03T04:04:28.873Z,4.67
2022-11-03T04:07:10.766Z,4.62
2022-11-03T04:09:38.862Z,4.71
2022-11-03T04:12:24.927Z,4.77
2022-11-03T04:15:11.706Z,4.50
2022-11-03T04:17:59.873Z,4.37
2022-11-03T04:20:45.795Z,4.53
2022-11-03T04:23:13.886Z,4.56
2022-11-03T04:25:42.413Z,4.63
2022-11-03T04:28:13.792Z,4.55
2022-11-03T04:30:43.737Z,4.22
2022-11-03T04:33:15.834Z,4.73
2022-11-03T04:35:45.485Z,4.29
2022-11-03T04:38:23.355Z,4.62
2022-11-03T04:40:55.737Z,4.57
2022-11-03T04:43:31.147Z,4.70
2022-11-03T04:46:00.696Z,4.11
2022-11-03T04:48:30.427Z,4.63
2022-11-03T04:51:02.001Z,4.44
2022-11-03T04:53:34.271Z,4.19
2022-11-03T04:56:07.257Z,3.78
2022-11-03T04:58:37.817Z,4.19
2022-11-03T05:01:13.697Z,4.20
2022-11-03T05:03:43.379Z,4.08
2022-11-03T05:06:14.157Z,4.31
2022-11-03T05:08:43.935Z,4.52
2022-11-03T05:11:18.808Z,4.24
2022-11-03T05:13:46.899Z,3.97
2022-11-03T05:16:16.645Z,4.03
2022-11-03T05:18:48.081Z,4.09
2022-11-03T05:21:19.137Z,4.08
2022-11-03T05:23:49.746Z,4.14
2022-11-03T05:26:21.292Z,4.23
2022-11-03T05:28:53.440Z,4.07
2022-11-03T05:31:28.866Z,3.97
2022-11-03T05:33:59.928Z,3.99
2022-11-03T05:36:30.984Z,3.49
2022-11-03T05:39:03.000Z,3.74
2022-11-03T05:41:32.015Z,3.96
2022-11-03T05:44:02.681Z,3.92
2022-11-03T05:46:35.271Z,3.89
2022-11-03T05:49:04.350Z,4.03
2022-11-03T05:51:36.033Z,3.94
2022-11-03T05:54:06.496Z,3.87
2022-11-03T05:56:36.465Z,4.00
2022-11-03T05:59:06.528Z,3.84
2022-11-03T06:01:38.521Z,4.11
2022-11-03T06:04:19.840Z,4.16
2022-11-03T06:06:53.281Z,4.23
2022-11-03T06:09:24.521Z,4.36
2022-11-03T06:11:54.852Z,4.25
2022-11-03T06:14:25.187Z,3.90
2022-11-03T06:16:57.976Z,4.22
2022-11-03T06:19:29.576Z,4.40
2022-11-03T06:22:00.190Z,4.28
2022-11-03T06:24:32.126Z,4.06
2022-11-03T06:27:00.256Z,4.26
2022-11-03T06:29:31.955Z,4.09
2022-11-03T06:32:02.286Z,3.75
2022-11-03T06:34:39.008Z,4.13
2022-11-03T06:37:16.577Z,4.46
2022-11-03T06:39:44.617Z,4.46
2022-11-03T06:42:14.354Z,4.08
2022-11-03T06:44:44.131Z,4.31
2022-11-03T06:47:23.451Z,4.05
2022-11-03T06:49:53.187Z,3.90
2022-11-03T06:52:32.591Z,4.59
2022-11-03T06:55:15.712Z,4.45
2022-11-03T06:57:47.707Z,4.28
2022-11-03T07:00:40.038Z,4.57
2022-11-03T07:03:14.657Z,4.68
2022-11-03T07:05:43.193Z,4.79
2022-11-03T07:08:20.780Z,4.84
2022-11-03T07:10:49.147Z,4.82
2022-11-03T07:13:21.272Z,5.05
2022-11-03T07:15:49.534Z,4.76
2022-11-03T07:18:23.788Z,4.81
2022-11-03T07:20:53.146Z,5.08
2022-11-03T07:23:25.565Z,4.94
2022-11-03T07:25:55.559Z,5.07
2022-11-03T07:28:27.924Z,5.28
2022-11-03T07:30:56.068Z,5.43
2022-11-03T07:33:28.957Z,5.30
2022-11-03T07:36:14.968Z,5.58
2022-11-03T07:38:44.710Z,5.63
2022-11-03T07:41:19.600Z,5.88
2022-11-03T07:43:55.750Z,5.72
2022-11-03T07:46:25.635Z,5.88
2022-11-03T07:48:58.958Z,6.13
2022-11-03T07:51:31.832Z,6.14
2022-11-03T07:54:10.666Z,6.18
2022-11-03T07:56:44.950Z,6.29
2022-11-03T07:59:18.027Z,6.48
2022-11-03T08:01:49.399Z,6.76
2022-11-03T08:04:23.084Z,6.58
2022-11-03T08:06:51.519Z,6.59
2022-11-03T08:09:20.253Z,6.38
2022-11-03T08:11:48.711Z,6.28
2022-11-03T08:14:16.956Z,6.68
2022-11-03T08:16:45.219Z,6.62
2022-11-03T08:19:13.254Z,7.08
2022-11-03T08:21:42.824Z,7.54
2022-11-03T08:24:10.921Z,7.35
2022-11-03T08:26:38.996Z,7.14
2022-11-03T08:29:07.084Z,7.27
2022-11-03T08:31:35.208Z,7.41
2022-11-03T08:34:03.312Z,7.73
2022-11-03T08:36:34.315Z,7.65
2022-11-03T08:39:04.046Z,7.80
2022-11-03T08:41:32.317Z,7.69
2022-11-03T08:44:00.548Z,7.45
2022-11-03T08:46:28.911Z,7.76
2022-11-03T08:48:57.180Z,7.48
2022-11-03T08:51:25.743Z,7.86
2022-11-03T08:53:54.328Z,7.83
2022-11-03T08:56:24.161Z,8.03
2022-11-03T08:58:52.348Z,8.35
2022-11-03T09:01:20.564Z,8.01
2022-11-03T09:07:10.430Z,8.26
2022-11-03T09:12:31.170Z,8.55
2022-11-03T09:15:01.048Z,8.82
2022-11-03T09:17:29.145Z,8.27
2022-11-03T09:20:59.209Z,8.74
2022-11-03T09:23:49.810Z,8.87
2022-11-03T09:30:06.557Z,9.14
2022-11-03T09:32:37.636Z,8.96
2022-11-03T09:35:06.398Z,8.91
2022-11-03T09:37:34.642Z,8.93
2022-11-03T09:40:32.160Z,9.24
2022-11-03T09:43:00.286Z,9.06
2022-11-03T09:45:29.945Z,9.26
2022-11-03T09:47:58.021Z,9.66
2022-11-03T09:50:26.299Z,9.21
2022-11-03T09:52:55.460Z,9.61
2022-11-03T09:55:26.258Z,9.72
2022-11-03T09:58:01.039Z,10.06
2022-11-03T10:01:37.988Z,10.23
2022-11-03T10:04:07.569Z,10.40
2022-11-03T10:06:35.693Z,10.29
2022-11-03T10:09:03.788Z,10.33
2022-11-03T10:11:32.474Z,10.64
2022-11-03T10:14:00.572Z,10.50
2022-11-03T10:16:32.585Z,10.58
2022-11-03T10:19:03.281Z,10.45
2022-11-03T10:21:34.226Z,10.59
2022-11-03T10:24:02.558Z,10.61
2022-11-03T10:26:35.746Z,10.50
2022-11-03T10:29:06.169Z,10.86
2022-11-03T10:31:36.216Z,11.20
2022-11-03T10:34:05.038Z,11.48
2022-11-03T10:36:35.853Z,11.20
2022-11-03T10:39:26.783Z,11.16
2022-11-03T10:41:59.755Z,10.82
2022-11-03T10:44:29.329Z,11.10
2022-11-03T10:46:58.990Z,10.99
2022-11-03T10:49:31.882Z,10.99
2022-11-03T10:52:16.105Z,11.01
2022-11-03T10:54:44.339Z,11.06
2022-11-03T10:57:12.590Z,11.26
2022-11-03T10:59:41.014Z,11.42
2022-11-03T11:02:19.896Z,10.94
2022-11-03T11:04:50.190Z,10.98
2022-11-03T11:07:27.413Z,11.48
2022-11-03T11:10:01.452Z,11.57
2022-11-03T11:12:30.568Z,11.43
2022-11-03T11:15:02.458Z,11.55
2022-11-03T11:17:51.939Z,11.57
2022-11-03T11:20:43.930Z,11.70
2022-11-03T11:24:10.591Z,11.78
2022-11-03T11:26:45.362Z,11.68
2022-11-03T11:29:37.039Z,11.59
2022-11-03T11:32:34.758Z,11.69
2022-11-03T11:35:10.959Z,11.57
2022-11-03T11:37:42.235Z,11.76
2022-11-03T11:40:18.616Z,11.42
2022-11-03T11:43:28.436Z,11.89
2022-11-03T11:46:33.697Z,11.99
2022-11-03T11:49:19.285Z,11.91
2022-11-03T11:51:50.922Z,11.76
2022-11-03T11:54:22.030Z,11.90
2022-11-03T11:56:51.353Z,11.59
2022-11-03T11:59:26.146Z,11.87
2022-11-03T12:01:57.349Z,11.66
2022-11-03T12:04:28.025Z,11.70
2022-11-03T12:06:57.694Z,11.61
2022-11-03T12:09:28.384Z,11.69
2022-11-03T12:12:00.495Z,11.82
2022-11-03T12:14:36.973Z,12.03
2022-11-03T12:17:33.250Z,12.06
2022-11-03T12:20:01.260Z,12.11
2022-11-03T12:22:42.925Z,12.13
2022-11-03T12:25:36.923Z,12.23
2022-11-03T12:28:05.530Z,12.10
2022-11-03T12:30:39.602Z,12.19
2022-11-03T12:33:08.210Z,12.33
2022-11-03T12:35:36.499Z,12.33
2022-11-03T12:38:04.562Z,12.25
2022-11-03T12:40:33.267Z,12.09
2022-11-03T12:43:01.319Z,12.39
2022-11-03T12:45:29.462Z,12.36
2022-11-03T12:47:59.017Z,12.01
2022-11-03T12:50:34.300Z,12.54
2022-11-03T12:53:02.492Z,12.59
2022-11-03T12:55:30.535Z,12.64
2022-11-03T12:57:58.590Z,12.55
2022-11-03T13:00:27.087Z,12.58
2022-11-03T13:02:55.341Z,12.76
2022-11-03T13:05:26.021Z,12.74
2022-11-03T13:07:54.352Z,12.38
2022-11-03T13:10:22.620Z,12.76
2022-11-03T13:12:50.697Z,12.29
2022-11-03T13:15:40.948Z,12.77
2022-11-03T13:18:13.791Z,12.69
2022-11-03T13:20:52.361Z,12.76
2022-11-03T13:23:23.085Z,12.71
2022-11-03T13:25:56.514Z,12.77
2022-11-03T13:28:24.620Z,12.79
2022-11-03T13:30:54.423Z,12.59
2022-11-03T13:33:26.912Z,12.68
2022-11-03T13:35:57.175Z,12.55
2022-11-03T13:38:28.126Z,12.49
2022-11-03T13:41:22.804Z,12.73
2022-11-03T13:43:52.234Z,12.73
2022-11-03T13:46:22.316Z,12.82
2022-11-03T13:51:45.572Z,12.90
2022-11-03T13:59:55.564Z,12.96
2022-11-03T14:05:15.811Z,12.91
2022-11-03T14:08:03.039Z,13.02
2022-11-03T14:10:34.415Z,13.03
2022-11-03T14:13:08.320Z,12.95
2022-11-03T14:15:37.297Z,13.02
2022-11-03T14:18:08.457Z,13.01
2022-11-03T14:20:36.951Z,12.92
2022-11-03T14:23:09.824Z,12.89
2022-11-03T14:25:38.028Z,12.87
2022-11-03T14:28:24.481Z,12.97
2022-11-03T14:31:00.267Z,12.91
2022-11-03T14:33:28.476Z,12.90
2022-11-03T14:35:56.890Z,12.93
2022-11-03T14:38:26.866Z,12.50
2022-11-03T14:41:12.770Z,12.55
2022-11-03T14:43:41.072Z,12.52
2022-11-03T14:46:14.268Z,12.62
2022-11-03T14:48:48.400Z,12.24
2022-11-03T14:51:17.853Z,12.46
2022-11-03T14:53:47.465Z,12.42
2022-11-03T14:56:15.517Z,12.67
2022-11-03T14:58:43.580Z,12.71
2022-11-03T15:01:11.763Z,12.39
2022-11-03T15:03:40.980Z,12.66
2022-11-03T15:06:15.824Z,12.54
2022-11-03T15:08:43.910Z,12.54
2022-11-03T15:11:14.230Z,12.09
2022-11-03T15:13:45.973Z,12.23
2022-11-03T15:16:16.698Z,12.53
2022-11-03T15:18:45.289Z,12.39
2022-11-03T15:21:13.489Z,12.17
2022-11-03T15:26:31.942Z,12.39
2022-11-03T15:29:00.017Z,12.08
2022-11-03T15:31:28.097Z,12.31
2022-11-03T15:33:56.279Z,11.96
2022-11-03T15:36:24.763Z,12.07
2022-11-03T15:38:55.618Z,11.74
2022-11-03T15:41:23.764Z,12.16
2022-11-03T15:43:53.323Z,11.98
2022-11-03T15:46:21.411Z,11.81
2022-11-03T15:48:49.770Z,12.09
2022-11-03T15:51:18.576Z,11.76
2022-11-03T15:53:46.714Z,11.80
2022-11-03T15:56:14.926Z,11.77
2022-11-03T15:58:43.636Z,12.12
2022-11-03T16:01:15.799Z,12.30
2022-11-03T16:03:44.671Z,11.74
2022-11-03T16:06:40.158Z,11.63
2022-11-03T16:11:53.148Z,11.93
2022-11-03T16:14:21.421Z,11.87
2022-11-03T16:16:51.130Z,11.61
2022-11-03T16:19:19.405Z,11.46
2022-11-03T16:21:47.824Z,11.63
2022-11-03T16:24:16.329Z,11.71
2022-11-03T16:26:44.532Z,11.69
2022-11-03T16:29:14.095Z,11.84
2022-11-03T16:31:42.349Z,11.54
2022-11-03T16:34:12.040Z,11.59
2022-11-03T16:36:40.195Z,11.47
2022-11-03T16:39:08.503Z,11.65
2022-11-03T16:41:36.669Z,11.69
2022-11-03T16:44:05.000Z,11.05
2022-11-03T16:46:33.121Z,11.52
2022-11-03T16:49:01.310Z,11.15
2022-11-03T16:51:38.768Z,11.13
2022-11-03T16:54:10.500Z,11.22
2022-11-03T16:56:38.643Z,11.67
2022-11-03T16:59:06.806Z,11.44
2022-11-03T17:01:35.041Z,11.39
2022-11-03T17:04:03.422Z,11.58
2022-11-03T17:06:32.960Z,11.72
2022-11-03T17:09:01.547Z,12.20
2022-11-03T17:11:41.595Z,11.88
2022-11-03T17:14:13.932Z,12.12
2022-11-03T17:16:45.699Z,12.35
2022-11-03T17:19:14.246Z,11.91
2022-11-03T17:21:43.926Z,12.53
2022-11-03T17:24:16.308Z,12.33
2022-11-03T17:26:55.836Z,12.00
2022-11-03T17:29:27.589Z,12.02
2022-11-03T17:31:56.008Z,12.07
2022-11-03T17:37:09.977Z,11.87
2022-11-03T17:42:27.574Z,11.61
2022-11-03T17:44:57.362Z,11.38
2022-11-03T17:48:15.544Z,11.75
2022-11-03T17:50:51.761Z,11.26
2022-11-03T17:53:24.424Z,11.29
2022-11-03T17:59:17.016Z,11.53
2022-11-03T18:01:49.329Z,11.27
2022-11-03T18:04:20.892Z,11.12
2022-11-03T18:07:05.993Z,11.31
2022-11-03T18:13:03.356Z,11.30
2022-11-03T18:15:39.429Z,11.48
2022-11-03T18:18:21.687Z,11.52
2022-11-03T18:20:53.729Z,11.50
2022-11-03T18:23:47.202Z,11.30
2022-11-03T18:30:37.441Z,10.76
2022-11-03T18:33:06.233Z,10.89
2022-11-03T18:35:35.970Z,11.08
2022-11-03T18:38:10.642Z,10.66
2022-11-03T18:40:39.744Z,10.58
2022-11-03T18:43:23.426Z,10.59
2022-11-03T18:45:57.617Z,11.24
2022-11-03T18:48:30.354Z,10.89
2022-11-03T18:51:06.440Z,10.57
2022-11-03T18:53:51.556Z,10.84
2022-11-03T18:56:22.770Z,10.73
2022-11-03T18:59:21.566Z,10.75
2022-11-03T19:02:06.587Z,10.57
2022-11-03T19:04:52.844Z,10.68
2022-11-03T19:08:01.045Z,10.14
2022-11-03T19:13:42.029Z,10.63
2022-11-03T19:16:30.985Z,10.75
2022-11-03T19:19:07.221Z,10.30
2022-11-03T19:21:39.377Z,10.64
2022-11-03T19:24:10.087Z,10.79
2022-11-03T19:26:47.205Z,11.06
2022-11-03T19:29:36.676Z,10.62
2022-11-03T19:32:47.462Z,10.64
2022-11-03T19:35:31.737Z,10.58
2022-11-03T19:38:03.435Z,10.64
2022-11-03T19:40:32.370Z,10.27
2022-11-03T19:42:59.686Z,10.32
2022-11-03T19:45:29.192Z,10.26
2022-11-03T19:50:50.306Z,10.63
2022-11-03T19:53:23.834Z,10.81
2022-11-03T19:55:52.080Z,10.36
2022-11-03T19:58:22.364Z,10.79
2022-11-03T20:00:51.748Z,10.57
2022-11-03T20:03:20.413Z,10.21
2022-11-03T20:05:52.641Z,10.42
2022-11-03T20:11:46.238Z,11.23
2022-11-03T20:14:19.227Z,11.25
2022-11-03T20:16:47.463Z,11.04
2022-11-03T20:19:16.116Z,11.11
2022-11-03T20:21:45.916Z,10.92
2022-11-03T20:24:16.879Z,11.38
2022-11-03T20:26:45.344Z,11.10
2022-11-03T20:29:15.459Z,11.34
2022-11-03T20:31:45.562Z,11.17
2022-11-03T20:34:15.168Z,11.08
2022-11-03T20:36:45.386Z,10.99
2022-11-03T20:39:16.236Z,10.79
2022-11-03T20:41:48.149Z,10.89
2022-11-03T20:44:17.328Z,10.89
2022-11-03T20:46:45.655Z,10.64
2022-11-03T20:49:13.809Z,10.71
2022-11-03T20:51:44.100Z,10.83
2022-11-03T20:54:17.737Z,10.83
2022-11-03T20:57:15.398Z,10.48
2022-11-03T20:59:43.728Z,10.65
2022-11-03T21:02:13.958Z,10.74
2022-11-03T21:04:43.402Z,10.58
2022-11-03T21:07:13.924Z,10.85
2022-11-03T21:09:43.932Z,10.79
2022-11-03T21:12:15.118Z,10.71
2022-11-03T21:15:00.510Z,10.71
2022-11-03T21:17:46.590Z,10.72
2022-11-03T21:20:14.900Z,10.80
2022-11-03T21:22:53.264Z,10.80
2022-11-03T21:25:25.079Z,10.48
2022-11-03T21:27:54.426Z,10.75
2022-11-03T21:30:23.454Z,10.99
2022-11-03T21:32:51.848Z,10.60
2022-11-03T21:35:22.155Z,10.31
2022-11-03T21:37:50.640Z,10.32
2022-11-03T21:40:19.278Z,10.22
2022-11-03T21:43:06.753Z,10.20
2022-11-03T21:45:34.987Z,10.21
2022-11-03T21:48:21.381Z,10.48
2022-11-03T21:50:51.029Z,10.40
2022-11-03T21:53:19.363Z,10.33
2022-11-03T21:55:48.723Z,10.43
2022-11-03T21:58:18.574Z,10.29
2022-11-03T22:00:48.535Z,10.23
2022-11-03T22:03:16.988Z,10.19
2022-11-03T22:05:56.427Z,9.91
2022-11-03T22:08:24.869Z,9.81
2022-11-03T22:10:53.221Z,10.17
2022-11-03T22:13:24.387Z,10.19
2022-11-03T22:16:13.055Z,10.23
2022-11-03T22:18:41.435Z,10.12
2022-11-03T22:21:27.503Z,9.95
2022-11-03T22:24:12.842Z,10.02
2022-11-03T22:27:00.017Z,9.84
2022-11-03T22:29:47.254Z,9.89
2022-11-03T22:32:15.923Z,10.12
2022-11-03T22:35:01.448Z,9.87
2022-11-03T22:40:16.878Z,9.77
2022-11-03T22:43:02.707Z,10.23
2022-11-03T22:45:49.730Z,10.24
2022-11-03T22:48:18.721Z,10.33
2022-11-03T22:50:47.411Z,10.38
2022-11-03T22:55:14.396Z,10.31
2022-11-03T22:59:24.766Z,9.68
2022-11-03T23:02:08.089Z,10.03
2022-11-03T23:04:37.252Z,10.32
2022-11-03T23:07:09.429Z,9.74
2022-11-03T23:09:37.802Z,9.73
2022-11-03T23:12:11.884Z,10.23
2022-11-03T23:14:57.640Z,9.57
2022-11-03T23:17:51.135Z,9.98
2022-11-03T23:20:41.457Z,9.82
2022-11-03T23:24:01.602Z,9.54
2022-11-03T23:26:38.686Z,10.15
2022-11-03T23:29:14.106Z,9.72
2022-11-03T23:32:00.355Z,10.21
2022-11-03T23:34:32.084Z,9.93
2022-11-03T23:37:08.890Z,9.90
2022-11-03T23:43:01.830Z,10.05
